Metar z pełnej godziny Komunikat METAR ze strony awiacja.imgw.pl Metar G00 EPGD METAR EPGD 062300Z 25005KT 6000 -DZ OVC004 01/01 Q1007 =